createdAt,value
2023-03-08T00:02:00.207Z,98904.84
2023-03-08T00:04:26.904Z,98902.44
2023-03-08T00:06:53.450Z,98905.56
2023-03-08T00:09:20.093Z,98909.97
2023-03-08T00:11:46.724Z,98913.66
2023-03-08T00:14:13.350Z,98913.88
2023-03-08T00:16:39.943Z,98919.19
2023-03-08T00:19:08.774Z,98933.47
2023-03-08T00:21:35.401Z,98927.34
2023-03-08T00:24:02.010Z,98937.97
2023-03-08T00:26:28.527Z,98932.66
2023-03-08T00:28:55.110Z,98931.03
2023-03-08T00:31:22.054Z,98934.72
2023-03-08T00:33:52.955Z,98937.56
2023-03-08T00:36:19.991Z,98945.34
2023-03-08T00:38:48.306Z,98936.34
2023-03-08T00:41:15.534Z,98937.81
2023-03-08T00:43:45.036Z,98942.06
2023-03-08T00:46:12.621Z,98944.72
2023-03-08T00:48:39.323Z,98945.78
2023-03-08T00:51:06.116Z,98951.09
2023-03-08T00:53:32.790Z,98952.69
2023-03-08T00:56:00.882Z,98951.09
2023-03-08T00:58:30.506Z,98951.88
2023-03-08T01:00:58.121Z,98950.47
2023-03-08T01:03:25.109Z,98960.06
2023-03-08T01:05:54.547Z,98958.44
2023-03-08T01:08:22.958Z,98954.13
2023-03-08T01:10:53.144Z,98949.66
2023-03-08T01:13:21.167Z,98949.88
2023-03-08T01:15:47.828Z,98950.47
2023-03-08T01:18:14.740Z,98952.31
2023-03-08T01:20:41.508Z,98949.44
2023-03-08T01:23:08.103Z,98955.06
2023-03-08T01:25:34.662Z,98941.66
2023-03-08T01:28:01.247Z,98945.34
2023-03-08T01:30:28.013Z,98944.53
2023-03-08T01:32:54.513Z,98939.69
2023-03-08T01:35:21.127Z,98937.97
2023-03-08T01:37:53.631Z,98937.56
2023-03-08T01:40:21.146Z,98926.53
2023-03-08T01:42:47.824Z,98926.53
2023-03-08T01:45:52.150Z,98916.28
2023-03-08T01:48:32.172Z,98914.47
2023-03-08T01:51:00.948Z,98913.03
2023-03-08T01:53:27.664Z,98920.78
2023-03-08T01:55:55.306Z,98916.31
2023-03-08T01:58:22.061Z,98916.31
2023-03-08T02:00:48.527Z,98915.53
2023-03-08T02:03:15.497Z,98904.25
2023-03-08T02:05:43.786Z,98909.75
2023-03-08T02:08:10.410Z,98908.13
2023-03-08T02:10:37.932Z,98906.28
2023-03-08T02:13:07.337Z,98907.91
2023-03-08T02:15:34.474Z,98909.75
2023-03-08T02:18:01.063Z,98911.59
2023-03-08T02:20:30.521Z,98904.47
2023-03-08T02:23:08.745Z,98914.22
2023-03-08T02:25:35.444Z,98903.63
2023-03-08T02:28:04.039Z,98904.25
2023-03-08T02:30:34.702Z,98910.13
2023-03-08T02:33:01.474Z,98909.34
2023-03-08T02:35:27.865Z,98913.06
2023-03-08T02:37:54.442Z,98905.22
2023-03-08T02:40:25.557Z,98911.53
2023-03-08T02:42:54.299Z,98905.44
2023-03-08T02:45:20.780Z,98908.88
2023-03-08T02:47:47.203Z,98904.19
2023-03-08T02:50:13.685Z,98894.59
2023-03-08T02:52:40.180Z,98896.00
2023-03-08T02:55:09.389Z,98884.38
2023-03-08T02:57:35.859Z,98880.28
2023-03-08T03:00:02.445Z,98872.09
2023-03-08T03:02:28.916Z,98877.41
2023-03-08T03:04:55.432Z,98883.97
2023-03-08T03:07:21.897Z,98879.50
2023-03-08T03:09:48.428Z,98876.84
2023-03-08T03:12:14.872Z,98872.31
2023-03-08T03:14:41.413Z,98877.84
2023-03-08T03:17:07.893Z,98877.84
2023-03-08T03:19:34.373Z,98880.72
2023-03-08T03:22:00.860Z,98876.22
2023-03-08T03:24:27.321Z,98873.56
2023-03-08T03:26:56.445Z,98876.22
2023-03-08T03:29:22.934Z,98878.25
2023-03-08T03:31:49.409Z,98878.25
2023-03-08T03:34:15.868Z,98888.88
2023-03-08T03:36:42.550Z,98888.88
2023-03-08T03:39:09.061Z,98877.47
2023-03-08T03:41:35.525Z,98886.03
2023-03-08T03:44:02.468Z,98885.22
2023-03-08T03:46:29.106Z,98880.91
2023-03-08T03:48:55.613Z,98884.41
2023-03-08T03:51:23.023Z,98878.25
2023-03-08T03:53:50.088Z,98881.97
2023-03-08T03:56:22.727Z,98883.16
2023-03-08T03:58:49.561Z,98881.97
2023-03-08T04:01:18.908Z,98875.28
2023-03-08T04:03:45.432Z,98883.56
2023-03-08T04:06:15.162Z,98879.09
2023-03-08T04:08:42.574Z,98880.78
2023-03-08T04:11:14.863Z,98890.16
2023-03-08T04:13:41.993Z,98890.16
2023-03-08T04:16:13.028Z,98890.16
2023-03-08T04:18:39.667Z,98892.69
2023-03-08T04:21:06.402Z,98902.69
2023-03-08T04:23:33.587Z,98902.09
2023-03-08T04:26:00.608Z,98902.50
2023-03-08T04:28:27.643Z,98902.94
2023-03-08T04:30:54.146Z,98899.06
2023-03-08T04:33:21.163Z,98887.84
2023-03-08T04:35:47.896Z,98901.56
2023-03-08T04:38:14.320Z,98900.94
2023-03-08T04:41:05.104Z,98891.56
2023-03-08T04:43:34.855Z,98901.38
2023-03-08T04:46:02.228Z,98889.97
2023-03-08T04:48:28.939Z,98889.38
2023-03-08T04:50:57.632Z,98880.59
2023-03-08T04:53:25.345Z,98884.69
2023-03-08T04:55:53.918Z,98887.53
2023-03-08T04:58:20.883Z,98881.66
2023-03-08T05:00:47.651Z,98887.16
2023-03-08T05:03:14.132Z,98882.97
2023-03-08T05:05:55.660Z,98874.47
2023-03-08T05:08:23.153Z,98871.66
2023-03-08T05:10:54.010Z,98875.53
2023-03-08T05:13:20.631Z,98881.06
2023-03-08T05:15:47.078Z,98881.06
2023-03-08T05:18:13.608Z,98875.75
2023-03-08T05:20:40.060Z,98879.22
2023-03-08T05:23:06.738Z,98879.72
2023-03-08T05:25:36.120Z,98870.25
2023-03-08T05:28:02.551Z,98869.22
2023-03-08T05:30:29.066Z,98865.97
2023-03-08T05:32:57.836Z,98853.47
2023-03-08T05:35:24.395Z,98853.69
2023-03-08T05:37:50.885Z,98850.22
2023-03-08T05:40:17.681Z,98840.47
2023-03-08T05:42:44.007Z,98845.81
2023-03-08T05:45:11.013Z,98838.91
2023-03-08T05:47:37.452Z,98843.25
2023-03-08T05:50:04.233Z,98842.53
2023-03-08T05:52:34.405Z,98845.19
2023-03-08T05:55:01.074Z,98848.22
2023-03-08T05:57:28.404Z,98858.78
2023-03-08T05:59:54.918Z,98865.03
2023-03-08T06:02:21.426Z,98858.16
2023-03-08T06:04:47.883Z,98840.22
2023-03-08T06:07:14.418Z,98851.38
2023-03-08T06:09:40.852Z,98853.47
2023-03-08T06:12:07.551Z,98854.78
2023-03-08T06:14:34.000Z,98857.72
2023-03-08T06:17:00.549Z,98856.13
2023-03-08T06:19:27.201Z,98866.78
2023-03-08T06:21:53.735Z,98859.69
2023-03-08T06:24:20.207Z,98866.88
2023-03-08T06:26:46.628Z,98862.22
2023-03-08T06:29:13.078Z,98859.41
2023-03-08T06:31:39.540Z,98854.72
2023-03-08T06:34:05.976Z,98851.47
2023-03-08T06:36:32.475Z,98847.41
2023-03-08T06:39:00.999Z,98844.97
2023-03-08T06:41:29.665Z,98844.56
2023-03-08T06:43:56.921Z,98838.44
2023-03-08T06:46:23.508Z,98845.59
2023-03-08T06:48:50.508Z,98834.41
2023-03-08T06:51:18.344Z,98833.56
2023-03-08T06:53:45.929Z,98833.56
2023-03-08T06:56:15.338Z,98842.13
2023-03-08T06:58:42.747Z,98842.53
2023-03-08T07:01:12.982Z,98833.56
2023-03-08T07:03:39.592Z,98840.50
2023-03-08T07:06:11.457Z,98834.19
2023-03-08T07:08:41.777Z,98825.81
2023-03-08T07:11:09.845Z,98822.34
2023-03-08T07:13:38.088Z,98828.69
2023-03-08T07:16:10.016Z,98819.28
2023-03-08T07:18:36.974Z,98825.19
2023-03-08T07:21:04.122Z,98834.00
2023-03-08T07:23:30.613Z,98827.06
2023-03-08T07:25:57.104Z,98829.28
2023-03-08T07:28:23.917Z,98822.13
2023-03-08T07:30:52.652Z,98820.06
2023-03-08T07:33:20.738Z,98819.28
2023-03-08T07:35:47.610Z,98815.59
2023-03-08T07:38:15.153Z,98807.41
2023-03-08T07:40:42.056Z,98805.34
2023-03-08T07:43:08.572Z,98805.16
2023-03-08T07:45:35.342Z,98802.28
2023-03-08T07:48:01.815Z,98803.69
2023-03-08T07:50:28.338Z,98801.63
2023-03-08T07:52:56.031Z,98800.59
2023-03-08T07:55:22.577Z,98802.00
2023-03-08T07:57:49.051Z,98797.91
2023-03-08T08:00:15.904Z,98798.28
2023-03-08T08:02:42.407Z,98794.00
2023-03-08T08:05:09.420Z,98803.09
2023-03-08T08:07:35.918Z,98795.53
2023-03-08T08:10:02.435Z,98793.22
2023-03-08T08:12:28.980Z,98789.34
2023-03-08T08:14:55.465Z,98786.25
2023-03-08T08:17:22.390Z,98780.50
2023-03-08T08:19:49.169Z,98783.38
2023-03-08T08:22:15.759Z,98779.66
2023-03-08T08:24:42.341Z,98779.19
2023-03-08T08:27:08.930Z,98775.31
2023-03-08T08:29:37.632Z,98778.34
2023-03-08T08:32:04.877Z,98778.91
2023-03-08T08:34:31.482Z,98776.41
2023-03-08T08:36:58.024Z,98775.78
2023-03-08T08:39:24.541Z,98764.47
2023-03-08T08:41:51.291Z,98768.94
2023-03-08T08:44:17.798Z,98762.75
2023-03-08T08:46:44.366Z,98764.50
2023-03-08T08:49:11.125Z,98763.66
2023-03-08T08:51:37.655Z,98758.44
2023-03-08T08:54:04.386Z,98760.25
2023-03-08T08:56:31.203Z,98751.38
2023-03-08T08:59:00.464Z,98746.78
2023-03-08T09:01:29.983Z,98754.31
2023-03-08T09:03:57.053Z,98746.31
2023-03-08T09:06:25.135Z,98745.66
2023-03-08T09:08:54.852Z,98740.72
2023-03-08T09:11:22.533Z,98742.31
2023-03-08T09:13:49.344Z,98741.91
2023-03-08T09:16:23.466Z,98740.94
2023-03-08T09:18:51.100Z,98735.47
2023-03-08T09:21:17.901Z,98723.19
2023-03-08T09:23:44.681Z,98723.06
2023-03-08T09:26:11.827Z,98722.06
2023-03-08T09:28:38.468Z,98723.66
2023-03-08T09:31:13.100Z,98718.47
2023-03-08T09:33:48.394Z,98712.94
2023-03-08T09:36:15.614Z,98711.34
2023-03-08T09:38:42.905Z,98710.06
2023-03-08T09:41:34.494Z,98707.88
2023-03-08T09:44:35.214Z,98689.16
2023-03-08T09:47:14.756Z,98684.66
2023-03-08T09:49:45.601Z,98682.19
2023-03-08T09:52:30.809Z,98676.44
2023-03-08T09:54:59.459Z,98670.97
2023-03-08T09:57:32.536Z,98659.50
2023-03-08T10:00:07.672Z,98665.28
2023-03-08T10:02:55.819Z,98661.59
2023-03-08T10:05:33.396Z,98655.91
2023-03-08T10:08:33.724Z,98657.91
2023-03-08T10:11:03.656Z,98650.47
2023-03-08T10:14:02.382Z,98646.19
2023-03-08T10:16:53.012Z,98640.78
2023-03-08T10:19:31.104Z,98635.56
2023-03-08T10:22:01.317Z,98631.13
2023-03-08T10:24:37.698Z,98632.75
2023-03-08T10:27:19.924Z,98618.19
2023-03-08T10:29:51.313Z,98619.22
2023-03-08T10:32:18.003Z,98616.81
2023-03-08T10:34:44.786Z,98611.50
2023-03-08T10:37:11.337Z,98610.31
2023-03-08T10:39:52.236Z,98599.56
2023-03-08T10:42:25.184Z,98601.06
2023-03-08T10:45:15.023Z,98590.66
2023-03-08T10:47:41.811Z,98592.88
2023-03-08T10:50:13.283Z,98585.13
2023-03-08T10:52:40.669Z,98577.22
2023-03-08T10:55:14.648Z,98575.72
2023-03-08T10:57:45.738Z,98579.91
2023-03-08T11:00:34.315Z,98583.59
2023-03-08T11:03:21.998Z,98583.97
2023-03-08T11:05:53.927Z,98587.88
2023-03-08T11:08:24.510Z,98580.72
2023-03-08T11:11:09.427Z,98589.16
2023-03-08T11:13:38.760Z,98588.81
2023-03-08T11:16:22.517Z,98593.94
2023-03-08T11:19:08.061Z,98585.81
2023-03-08T11:21:51.522Z,98587.91
2023-03-08T11:24:39.819Z,98588.50
2023-03-08T11:27:09.365Z,98582.56
2023-03-08T11:29:52.408Z,98583.03
2023-03-08T11:32:33.815Z,98578.41
2023-03-08T11:35:25.404Z,98578.16
2023-03-08T11:38:19.390Z,98574.22
2023-03-08T11:40:54.474Z,98576.66
2023-03-08T11:43:26.954Z,98580.94
2023-03-08T11:46:09.456Z,98579.19
2023-03-08T11:48:36.007Z,98583.25
2023-03-08T11:51:28.142Z,98573.66
2023-03-08T11:54:19.211Z,98578.63
2023-03-08T11:56:57.004Z,98574.22
2023-03-08T11:59:41.580Z,98572.50
2023-03-08T12:02:08.008Z,98576.69
2023-03-08T12:04:41.555Z,98578.88
2023-03-08T12:07:26.683Z,98573.06
2023-03-08T12:10:19.697Z,98565.22
2023-03-08T12:13:20.925Z,98564.41
2023-03-08T12:16:09.262Z,98566.84
2023-03-08T12:18:54.485Z,98562.66
2023-03-08T12:21:38.944Z,98559.88
2023-03-08T12:24:48.304Z,98576.53
2023-03-08T12:27:21.969Z,98573.91
2023-03-08T12:30:00.929Z,98567.75
2023-03-08T12:32:28.599Z,98553.28
2023-03-08T12:35:04.632Z,98532.09
2023-03-08T12:37:31.628Z,98537.06
2023-03-08T12:40:07.320Z,98537.44
2023-03-08T12:42:39.694Z,98541.25
2023-03-08T12:45:28.095Z,98540.88
2023-03-08T12:48:00.513Z,98540.19
2023-03-08T12:50:27.786Z,98540.44
2023-03-08T12:52:56.124Z,98538.56
2023-03-08T12:55:33.423Z,98524.53
2023-03-08T12:58:02.774Z,98529.66
2023-03-08T13:00:35.526Z,98519.56
2023-03-08T13:03:25.668Z,98525.72
2023-03-08T13:05:52.348Z,98525.38
2023-03-08T13:08:27.617Z,98519.56
2023-03-08T13:11:02.694Z,98517.94
2023-03-08T13:13:44.481Z,98510.53
2023-03-08T13:16:22.485Z,98505.69
2023-03-08T13:19:00.722Z,98511.94
2023-03-08T13:21:47.386Z,98511.94
2023-03-08T13:24:34.094Z,98521.09
2023-03-08T13:27:21.503Z,98511.94
2023-03-08T13:29:48.535Z,98513.59
2023-03-08T13:32:21.365Z,98505.59
2023-03-08T13:35:02.476Z,98501.06
2023-03-08T13:37:30.327Z,98505.38
2023-03-08T13:39:59.163Z,98506.66
2023-03-08T13:42:28.565Z,98500.75
2023-03-08T13:45:08.705Z,98500.03
2023-03-08T13:47:37.800Z,98502.28
2023-03-08T13:50:06.198Z,98498.22
2023-03-08T13:52:36.633Z,98491.63
2023-03-08T13:55:08.635Z,98484.19
2023-03-08T13:57:37.910Z,98495.31
2023-03-08T14:00:25.150Z,98493.34
2023-03-08T14:02:52.808Z,98485.13
2023-03-08T14:05:25.427Z,98486.75
2023-03-08T14:08:06.247Z,98484.66
2023-03-08T14:10:44.303Z,98492.66
2023-03-08T14:13:24.400Z,98484.09
2023-03-08T14:15:53.569Z,98488.50
2023-03-08T14:18:23.199Z,98480.75
2023-03-08T14:21:15.469Z,98476.44
2023-03-08T14:23:59.973Z,98459.56
2023-03-08T14:26:37.118Z,98467.31
2023-03-08T14:29:03.822Z,98458.31
2023-03-08T14:31:30.720Z,98461.22
2023-03-08T14:34:03.370Z,98470.56
2023-03-08T14:36:33.088Z,98470.22
2023-03-08T14:39:00.428Z,98471.50
2023-03-08T14:41:32.817Z,98468.34
2023-03-08T14:44:00.659Z,98468.25
2023-03-08T14:46:28.459Z,98457.59
2023-03-08T14:49:00.829Z,98457.16
2023-03-08T14:51:39.232Z,98455.53
2023-03-08T14:54:20.548Z,98440.59
2023-03-08T14:56:47.958Z,98431.22
2023-03-08T14:59:26.798Z,98428.56
2023-03-08T15:01:54.684Z,98425.13
2023-03-08T15:04:25.870Z,98416.88
2023-03-08T15:06:54.614Z,98416.53
2023-03-08T15:09:22.240Z,98401.63
2023-03-08T15:11:52.421Z,98397.91
2023-03-08T15:14:18.934Z,98400.25
2023-03-08T15:16:45.547Z,98394.69
2023-03-08T15:19:13.962Z,98393.06
2023-03-08T15:21:41.380Z,98391.44
2023-03-08T15:24:15.043Z,98389.13
2023-03-08T15:26:41.759Z,98396.75
2023-03-08T15:29:27.335Z,98391.31
2023-03-08T15:31:54.750Z,98397.81
2023-03-08T15:34:21.841Z,98398.88
2023-03-08T15:36:49.511Z,98404.41
2023-03-08T15:39:16.034Z,98395.63
2023-03-08T15:41:42.657Z,98395.13
2023-03-08T15:44:09.172Z,98394.34
2023-03-08T15:46:35.884Z,98390.88
2023-03-08T15:49:02.598Z,98384.50
2023-03-08T15:51:32.890Z,98380.31
2023-03-08T15:53:59.977Z,98376.53
2023-03-08T15:56:26.715Z,98385.31
2023-03-08T15:58:54.611Z,98375.44
2023-03-08T16:01:26.104Z,98366.34
2023-03-08T16:03:54.420Z,98363.56
2023-03-08T16:06:22.593Z,98356.88
2023-03-08T16:08:50.029Z,98351.78
2023-03-08T16:11:20.586Z,98345.66
2023-03-08T16:13:49.064Z,98347.75
2023-03-08T16:16:15.855Z,98355.72
2023-03-08T16:18:44.047Z,98373.25
2023-03-08T16:21:11.209Z,98382.91
2023-03-08T16:23:39.574Z,98387.41
2023-03-08T16:26:16.705Z,98394.34
2023-03-08T16:28:46.215Z,98393.44
2023-03-08T16:31:14.020Z,98399.78
2023-03-08T16:33:40.820Z,98411.47
2023-03-08T16:36:08.002Z,98414.13
2023-03-08T16:38:34.684Z,98417.81
2023-03-08T16:41:12.160Z,98419.69
2023-03-08T16:43:46.909Z,98406.63
2023-03-08T16:46:19.631Z,98406.72
2023-03-08T16:48:49.410Z,98409.28
2023-03-08T16:51:18.561Z,98405.59
2023-03-08T16:53:45.138Z,98402.31
2023-03-08T16:56:22.219Z,98403.03
2023-03-08T16:58:48.928Z,98409.03
2023-03-08T17:01:17.451Z,98399.44
2023-03-08T17:03:44.241Z,98399.13
2023-03-08T17:06:11.911Z,98399.06
2023-03-08T17:08:38.776Z,98378.88
2023-03-08T17:11:06.340Z,98391.00
2023-03-08T17:13:33.714Z,98389.88
2023-03-08T17:16:00.329Z,98391.94
2023-03-08T17:18:29.305Z,98397.25
2023-03-08T17:20:56.806Z,98401.97
2023-03-08T17:23:23.744Z,98394.22
2023-03-08T17:25:52.557Z,98389.16
2023-03-08T17:28:20.661Z,98400.81
2023-03-08T17:30:49.582Z,98408.00
2023-03-08T17:33:16.158Z,98402.91
